Culbertson, MT (59218)

1:08 PM MST on December 03, 2016 (GMT -0700)
Hinds Weather Station | | Change Station

Elev 1962 ft 48.14 °N, 104.52 °W | Updated 34 seconds ago

Scattered Clouds
Scattered Clouds
33.8 °F
Feels Like 26 °F
N
9.0
Wind Variable Wind from SW

Today
High -- | Low -- °F
--% Chance of Precip.
Yesterday
High -- | Low -- °F
Precip. -- in
Pressure 29.86 in
Visibility 10.0 miles
Clouds Scattered Clouds 6500 ft
Scattered Clouds 8000 ft
Windchill 26 °F
Dew Point 31 °F
Humidity 90%
Rainfall 0.00 in
Snow Depth Not available.
7:30 AM 4:05 PM
Waxing Crescent, 17% visible
METAR KSDY 031956Z AUTO 21011KT 10SM SCT065 SCT080 00/M03 A2977 RMK AO2 SLP112 T00001033 FZRANO
Pressure 29.86 in
Visibility 10.0 miles
Clouds Scattered Clouds 6500 ft
Scattered Clouds 8000 ft
Windchill 26 °F
Dew Point 31 °F
Humidity 90%
Rainfall 0.00 in
Snow Depth Not available.
7:30 AM 4:05 PM
Waxing Crescent, 17% visible
METAR KSDY 031956Z AUTO 21011KT 10SM SCT065 SCT080 00/M03 A2977 RMK AO2 SLP112 T00001033 FZRANO

10-Day Weather Forecast

Almanac

Astronomy

Dec. 03, 2016 Rise Set
Actual Time
Civil Twilight
Nautical Twilight
Astronomical Twilight
Moon
Length of Visible Light
Length of Day
Tomorrow will be .
, % of the Moon is Illuminated

Today's Extremes

State Highs State Lows

Community

WunderPhotos

Upload Photos

1,955,481 photos uploaded!

WunderBlog® & News

Nearby

Air Quality

  Air Quality AQ Index Pollutant
Not available.

Snow Depth

Station Depth Elevation

Earthquake Activity

City Distance Mag. Time & Date
Minimum magnitude displayed is 2.5.

Coastal Water Temperatures

Place Temperature

Stations

Nearby Weather Stations

Station Location Temp. Windchill Dew Point Humidity Wind Precip. Elev Updated Type
                   

Watches & Warnings

There are currently no watches in effect.